sensor_id;sensor_type;location;lat;lon;timestamp;P1;durP1;ratioP1;P2;durP2;ratioP2
71475;SDS011;59286;59.274;17.974;2023-05-10T00:00:32;10.50;;;5.88;;
71475;SDS011;59286;59.274;17.974;2023-05-10T00:02:57;8.30;;;4.97;;
71475;SDS011;59286;59.274;17.974;2023-05-10T00:05:23;11.82;;;5.85;;
71475;SDS011;59286;59.274;17.974;2023-05-10T00:07:48;9.50;;;5.22;;
71475;SDS011;59286;59.274;17.974;2023-05-10T00:10:14;12.10;;;5.18;;
71475;SDS011;59286;59.274;17.974;2023-05-10T00:12:39;12.63;;;5.40;;
71475;SDS011;59286;59.274;17.974;2023-05-10T00:15:05;8.88;;;5.15;;
71475;SDS011;59286;59.274;17.974;2023-05-10T00:17:31;9.13;;;5.10;;
71475;SDS011;59286;59.274;17.974;2023-05-10T00:19:56;11.55;;;5.32;;
71475;SDS011;59286;59.274;17.974;2023-05-10T00:22:21;9.18;;;4.97;;
71475;SDS011;59286;59.274;17.974;2023-05-10T00:24:47;7.32;;;4.75;;
71475;SDS011;59286;59.274;17.974;2023-05-10T00:27:12;10.20;;;5.38;;
71475;SDS011;59286;59.274;17.974;2023-05-10T00:29:37;8.45;;;5.32;;
71475;SDS011;59286;59.274;17.974;2023-05-10T00:32:03;9.82;;;5.63;;
71475;SDS011;59286;59.274;17.974;2023-05-10T00:34:28;6.72;;;4.93;;
71475;SDS011;59286;59.274;17.974;2023-05-10T00:36:54;8.88;;;4.88;;
71475;SDS011;59286;59.274;17.974;2023-05-10T00:39:20;8.55;;;5.72;;
71475;SDS011;59286;59.274;17.974;2023-05-10T00:41:45;8.30;;;5.88;;
71475;SDS011;59286;59.274;17.974;2023-05-10T00:44:10;10.27;;;5.50;;
71475;SDS011;59286;59.274;17.974;2023-05-10T00:46:36;10.52;;;5.55;;
71475;SDS011;59286;59.274;17.974;2023-05-10T00:49:01;8.30;;;5.43;;
71475;SDS011;59286;59.274;17.974;2023-05-10T00:51:27;8.68;;;6.00;;
71475;SDS011;59286;59.274;17.974;2023-05-10T00:53:52;9.13;;;5.32;;
71475;SDS011;59286;59.274;17.974;2023-05-10T00:56:18;9.10;;;5.00;;
71475;SDS011;59286;59.274;17.974;2023-05-10T00:58:48;10.98;;;5.80;;
71475;SDS011;59286;59.274;17.974;2023-05-10T01:01:13;14.25;;;5.43;;
71475;SDS011;59286;59.274;17.974;2023-05-10T01:03:39;7.57;;;5.47;;
71475;SDS011;59286;59.274;17.974;2023-05-10T01:06:04;8.35;;;5.45;;
71475;SDS011;59286;59.274;17.974;2023-05-10T01:08:30;9.30;;;5.53;;
71475;SDS011;59286;59.274;17.974;2023-05-10T01:10:56;7.07;;;4.97;;
71475;SDS011;59286;59.274;17.974;2023-05-10T01:13:36;9.15;;;5.47;;
71475;SDS011;59286;59.274;17.974;2023-05-10T01:16:04;9.18;;;5.30;;
71475;SDS011;59286;59.274;17.974;2023-05-10T01:18:33;9.15;;;5.57;;
71475;SDS011;59286;59.274;17.974;2023-05-10T01:32:34;8.98;;;5.35;;
71475;SDS011;59286;59.274;17.974;2023-05-10T01:40:39;7.53;;;5.57;;
71475;SDS011;59286;59.274;17.974;2023-05-10T01:43:10;8.15;;;5.43;;
71475;SDS011;59286;59.274;17.974;2023-05-10T01:46:02;9.65;;;5.55;;
71475;SDS011;59286;59.274;17.974;2023-05-10T01:48:36;10.13;;;6.18;;
71475;SDS011;59286;59.274;17.974;2023-05-10T01:51:05;12.75;;;5.97;;
71475;SDS011;59286;59.274;17.974;2023-05-10T01:53:31;12.73;;;6.32;;
71475;SDS011;59286;59.274;17.974;2023-05-10T01:56:02;10.43;;;5.60;;
71475;SDS011;59286;59.274;17.974;2023-05-10T01:58:29;11.68;;;6.00;;
71475;SDS011;59286;59.274;17.974;2023-05-10T02:00:58;11.13;;;6.35;;
71475;SDS011;59286;59.274;17.974;2023-05-10T02:03:26;8.90;;;6.55;;
71475;SDS011;59286;59.274;17.974;2023-05-10T02:05:53;11.65;;;5.80;;
71475;SDS011;59286;59.274;17.974;2023-05-10T02:08:21;9.98;;;5.43;;
71475;SDS011;59286;59.274;17.974;2023-05-10T02:10:48;12.15;;;6.30;;
71475;SDS011;59286;59.274;17.974;2023-05-10T02:13:15;10.43;;;5.95;;
71475;SDS011;59286;59.274;17.974;2023-05-10T02:15:43;10.98;;;6.25;;
71475;SDS011;59286;59.274;17.974;2023-05-10T02:18:12;12.77;;;5.68;;
71475;SDS011;59286;59.274;17.974;2023-05-10T02:20:39;8.35;;;5.93;;
71475;SDS011;59286;59.274;17.974;2023-05-10T02:23:04;8.60;;;5.85;;
71475;SDS011;59286;59.274;17.974;2023-05-10T02:25:31;12.20;;;6.00;;
71475;SDS011;59286;59.274;17.974;2023-05-10T02:27:57;9.82;;;6.47;;
71475;SDS011;59286;59.274;17.974;2023-05-10T02:30:26;9.60;;;6.65;;
71475;SDS011;59286;59.274;17.974;2023-05-10T02:32:54;8.82;;;6.30;;
71475;SDS011;59286;59.274;17.974;2023-05-10T02:35:20;8.98;;;6.78;;
71475;SDS011;59286;59.274;17.974;2023-05-10T02:37:47;10.07;;;6.80;;
71475;SDS011;59286;59.274;17.974;2023-05-10T02:40:14;11.18;;;6.70;;
71475;SDS011;59286;59.274;17.974;2023-05-10T02:42:42;9.88;;;6.72;;
71475;SDS011;59286;59.274;17.974;2023-05-10T02:45:13;10.52;;;6.75;;
71475;SDS011;59286;59.274;17.974;2023-05-10T02:47:42;12.05;;;6.30;;
71475;SDS011;59286;59.274;17.974;2023-05-10T02:50:08;13.68;;;8.02;;
71475;SDS011;59286;59.274;17.974;2023-05-10T02:52:58;7.85;;;6.28;;
71475;SDS011;59286;59.274;17.974;2023-05-10T02:55:25;9.88;;;6.53;;
71475;SDS011;59286;59.274;17.974;2023-05-10T02:57:59;9.27;;;6.82;;
71475;SDS011;59286;59.274;17.974;2023-05-10T03:00:26;10.73;;;6.40;;
71475;SDS011;59286;59.274;17.974;2023-05-10T03:02:51;9.50;;;6.70;;
71475;SDS011;59286;59.274;17.974;2023-05-10T03:05:17;8.85;;;6.28;;
71475;SDS011;59286;59.274;17.974;2023-05-10T03:07:43;9.85;;;6.43;;
71475;SDS011;59286;59.274;17.974;2023-05-10T03:10:10;12.20;;;6.70;;
71475;SDS011;59286;59.274;17.974;2023-05-10T03:13:20;13.85;;;6.18;;
71475;SDS011;59286;59.274;17.974;2023-05-10T03:18:11;10.90;;;6.93;;
71475;SDS011;59286;59.274;17.974;2023-05-10T03:20:46;9.85;;;6.80;;
71475;SDS011;59286;59.274;17.974;2023-05-10T03:23:18;9.50;;;6.78;;
71475;SDS011;59286;59.274;17.974;2023-05-10T03:25:48;10.25;;;6.35;;
71475;SDS011;59286;59.274;17.974;2023-05-10T03:28:31;11.98;;;6.60;;
71475;SDS011;59286;59.274;17.974;2023-05-10T03:31:02;13.75;;;6.80;;
71475;SDS011;59286;59.274;17.974;2023-05-10T03:33:31;8.63;;;6.43;;
71475;SDS011;59286;59.274;17.974;2023-05-10T03:35:56;8.68;;;5.93;;
71475;SDS011;59286;59.274;17.974;2023-05-10T03:38:22;12.20;;;7.07;;
71475;SDS011;59286;59.274;17.974;2023-05-10T03:40:47;15.98;;;6.63;;
71475;SDS011;59286;59.274;17.974;2023-05-10T03:43:12;15.48;;;6.70;;
71475;SDS011;59286;59.274;17.974;2023-05-10T03:45:38;11.80;;;6.15;;
71475;SDS011;59286;59.274;17.974;2023-05-10T03:48:03;10.45;;;6.00;;
71475;SDS011;59286;59.274;17.974;2023-05-10T03:50:29;11.68;;;6.38;;
71475;SDS011;59286;59.274;17.974;2023-05-10T03:52:54;11.32;;;6.43;;
71475;SDS011;59286;59.274;17.974;2023-05-10T03:55:20;10.70;;;5.97;;
71475;SDS011;59286;59.274;17.974;2023-05-10T03:57:49;8.93;;;5.70;;
71475;SDS011;59286;59.274;17.974;2023-05-10T04:00:18;8.73;;;5.50;;
71475;SDS011;59286;59.274;17.974;2023-05-10T04:02:44;12.02;;;6.68;;
71475;SDS011;59286;59.274;17.974;2023-05-10T04:05:09;11.18;;;5.55;;
71475;SDS011;59286;59.274;17.974;2023-05-10T04:07:35;10.95;;;5.38;;
71475;SDS011;59286;59.274;17.974;2023-05-10T04:10:00;13.65;;;5.80;;
71475;SDS011;59286;59.274;17.974;2023-05-10T04:12:26;12.20;;;5.55;;
71475;SDS011;59286;59.274;17.974;2023-05-10T04:14:51;9.45;;;5.18;;
71475;SDS011;59286;59.274;17.974;2023-05-10T04:17:16;8.55;;;4.85;;
71475;SDS011;59286;59.274;17.974;2023-05-10T04:19:42;7.18;;;5.13;;
71475;SDS011;59286;59.274;17.974;2023-05-10T04:22:07;8.68;;;5.50;;
71475;SDS011;59286;59.274;17.974;2023-05-10T04:24:33;8.48;;;4.45;;
71475;SDS011;59286;59.274;17.974;2023-05-10T04:26:58;13.52;;;4.90;;
71475;SDS011;59286;59.274;17.974;2023-05-10T04:29:24;10.65;;;4.72;;
71475;SDS011;59286;59.274;17.974;2023-05-10T04:31:49;7.70;;;4.68;;
71475;SDS011;59286;59.274;17.974;2023-05-10T04:34:15;6.18;;;4.38;;
71475;SDS011;59286;59.274;17.974;2023-05-10T04:36:41;8.10;;;4.47;;
71475;SDS011;59286;59.274;17.974;2023-05-10T04:39:06;7.93;;;4.15;;
71475;SDS011;59286;59.274;17.974;2023-05-10T04:41:32;6.25;;;3.95;;
71475;SDS011;59286;59.274;17.974;2023-05-10T04:43:57;11.45;;;3.95;;
71475;SDS011;59286;59.274;17.974;2023-05-10T04:46:22;7.57;;;3.63;;
71475;SDS011;59286;59.274;17.974;2023-05-10T04:48:48;10.27;;;4.40;;
71475;SDS011;59286;59.274;17.974;2023-05-10T04:51:13;6.20;;;3.78;;
71475;SDS011;59286;59.274;17.974;2023-05-10T04:53:38;8.35;;;4.25;;
71475;SDS011;59286;59.274;17.974;2023-05-10T04:56:04;11.52;;;4.00;;
71475;SDS011;59286;59.274;17.974;2023-05-10T04:58:29;6.65;;;3.53;;
71475;SDS011;59286;59.274;17.974;2023-05-10T05:00:55;8.13;;;3.10;;
71475;SDS011;59286;59.274;17.974;2023-05-10T05:03:20;7.68;;;3.70;;
71475;SDS011;59286;59.274;17.974;2023-05-10T05:05:47;8.18;;;3.50;;
71475;SDS011;59286;59.274;17.974;2023-05-10T05:08:12;5.65;;;3.28;;
71475;SDS011;59286;59.274;17.974;2023-05-10T05:10:38;4.88;;;3.28;;
71475;SDS011;59286;59.274;17.974;2023-05-10T05:13:03;6.20;;;3.47;;
71475;SDS011;59286;59.274;17.974;2023-05-10T05:15:28;16.00;;;3.33;;
71475;SDS011;59286;59.274;17.974;2023-05-10T05:17:55;6.70;;;3.10;;
71475;SDS011;59286;59.274;17.974;2023-05-10T05:20:21;7.35;;;3.10;;
71475;SDS011;59286;59.274;17.974;2023-05-10T05:22:49;3.88;;;2.70;;
71475;SDS011;59286;59.274;17.974;2023-05-10T05:25:15;7.78;;;3.05;;
71475;SDS011;59286;59.274;17.974;2023-05-10T05:27:40;7.03;;;3.28;;
71475;SDS011;59286;59.274;17.974;2023-05-10T05:30:06;8.27;;;2.75;;
71475;SDS011;59286;59.274;17.974;2023-05-10T05:32:32;8.30;;;3.47;;
71475;SDS011;59286;59.274;17.974;2023-05-10T05:34:58;8.27;;;3.38;;
71475;SDS011;59286;59.274;17.974;2023-05-10T05:37:23;12.25;;;3.53;;
71475;SDS011;59286;59.274;17.974;2023-05-10T05:39:49;4.97;;;3.17;;
71475;SDS011;59286;59.274;17.974;2023-05-10T05:42:15;7.18;;;2.90;;
71475;SDS011;59286;59.274;17.974;2023-05-10T05:44:42;5.50;;;2.90;;
71475;SDS011;59286;59.274;17.974;2023-05-10T05:47:08;7.13;;;3.03;;
71475;SDS011;59286;59.274;17.974;2023-05-10T05:49:34;6.40;;;3.00;;
71475;SDS011;59286;59.274;17.974;2023-05-10T05:51:59;4.95;;;2.80;;
71475;SDS011;59286;59.274;17.974;2023-05-10T05:54:26;5.45;;;3.25;;
71475;SDS011;59286;59.274;17.974;2023-05-10T05:56:53;12.13;;;3.17;;
71475;SDS011;59286;59.274;17.974;2023-05-10T05:59:20;5.38;;;2.65;;
71475;SDS011;59286;59.274;17.974;2023-05-10T06:01:45;7.72;;;2.63;;
71475;SDS011;59286;59.274;17.974;2023-05-10T06:04:11;8.80;;;3.10;;
71475;SDS011;59286;59.274;17.974;2023-05-10T06:06:36;8.75;;;3.03;;
71475;SDS011;59286;59.274;17.974;2023-05-10T06:09:01;5.57;;;2.80;;
71475;SDS011;59286;59.274;17.974;2023-05-10T06:11:27;6.28;;;3.00;;
71475;SDS011;59286;59.274;17.974;2023-05-10T06:13:52;4.95;;;2.47;;
71475;SDS011;59286;59.274;17.974;2023-05-10T06:16:18;7.53;;;2.72;;
71475;SDS011;59286;59.274;17.974;2023-05-10T06:18:43;7.40;;;2.80;;
71475;SDS011;59286;59.274;17.974;2023-05-10T06:21:08;4.82;;;2.33;;
71475;SDS011;59286;59.274;17.974;2023-05-10T06:23:34;5.25;;;2.70;;
71475;SDS011;59286;59.274;17.974;2023-05-10T06:26:00;10.13;;;2.58;;
71475;SDS011;59286;59.274;17.974;2023-05-10T06:28:26;5.47;;;2.40;;
71475;SDS011;59286;59.274;17.974;2023-05-10T06:30:51;6.30;;;2.60;;
71475;SDS011;59286;59.274;17.974;2023-05-10T06:33:17;7.88;;;2.90;;
71475;SDS011;59286;59.274;17.974;2023-05-10T06:35:42;7.60;;;2.60;;
71475;SDS011;59286;59.274;17.974;2023-05-10T06:38:07;8.98;;;2.50;;
71475;SDS011;59286;59.274;17.974;2023-05-10T06:40:33;8.30;;;2.83;;
71475;SDS011;59286;59.274;17.974;2023-05-10T06:42:58;5.95;;;2.83;;
71475;SDS011;59286;59.274;17.974;2023-05-10T06:45:23;7.55;;;2.90;;
71475;SDS011;59286;59.274;17.974;2023-05-10T06:47:49;7.90;;;2.78;;
71475;SDS011;59286;59.274;17.974;2023-05-10T06:50:14;11.90;;;3.17;;
71475;SDS011;59286;59.274;17.974;2023-05-10T06:52:40;9.05;;;2.78;;
71475;SDS011;59286;59.274;17.974;2023-05-10T06:55:05;4.72;;;2.25;;
71475;SDS011;59286;59.274;17.974;2023-05-10T06:57:31;7.88;;;2.60;;
71475;SDS011;59286;59.274;17.974;2023-05-10T06:59:57;7.53;;;2.35;;
71475;SDS011;59286;59.274;17.974;2023-05-10T07:02:27;7.20;;;2.55;;
71475;SDS011;59286;59.274;17.974;2023-05-10T07:04:53;9.77;;;2.40;;
71475;SDS011;59286;59.274;17.974;2023-05-10T07:07:19;8.32;;;2.65;;
71475;SDS011;59286;59.274;17.974;2023-05-10T07:09:44;7.80;;;2.20;;
71475;SDS011;59286;59.274;17.974;2023-05-10T07:12:10;6.13;;;2.47;;
71475;SDS011;59286;59.274;17.974;2023-05-10T07:14:36;8.57;;;2.60;;
71475;SDS011;59286;59.274;17.974;2023-05-10T07:17:04;10.35;;;2.33;;
71475;SDS011;59286;59.274;17.974;2023-05-10T07:19:29;10.65;;;2.75;;
71475;SDS011;59286;59.274;17.974;2023-05-10T07:21:55;7.47;;;2.40;;
71475;SDS011;59286;59.274;17.974;2023-05-10T07:24:20;8.32;;;2.40;;
71475;SDS011;59286;59.274;17.974;2023-05-10T07:26:45;3.78;;;2.20;;
71475;SDS011;59286;59.274;17.974;2023-05-10T07:29:11;6.70;;;2.50;;
71475;SDS011;59286;59.274;17.974;2023-05-10T07:31:36;7.20;;;2.38;;
71475;SDS011;59286;59.274;17.974;2023-05-10T07:34:02;12.75;;;2.50;;
71475;SDS011;59286;59.274;17.974;2023-05-10T07:36:28;8.05;;;2.22;;
71475;SDS011;59286;59.274;17.974;2023-05-10T07:38:53;4.97;;;2.22;;
71475;SDS011;59286;59.274;17.974;2023-05-10T07:41:19;6.78;;;2.28;;
71475;SDS011;59286;59.274;17.974;2023-05-10T07:43:45;12.57;;;3.05;;
71475;SDS011;59286;59.274;17.974;2023-05-10T07:46:11;8.18;;;2.22;;
71475;SDS011;59286;59.274;17.974;2023-05-10T07:48:36;8.57;;;2.20;;
71475;SDS011;59286;59.274;17.974;2023-05-10T07:51:02;7.15;;;2.40;;
71475;SDS011;59286;59.274;17.974;2023-05-10T07:53:27;7.43;;;2.15;;
71475;SDS011;59286;59.274;17.974;2023-05-10T07:55:59;3.88;;;1.90;;
71475;SDS011;59286;59.274;17.974;2023-05-10T07:58:24;3.45;;;2.17;;
71475;SDS011;59286;59.274;17.974;2023-05-10T08:00:50;5.25;;;1.92;;
71475;SDS011;59286;59.274;17.974;2023-05-10T08:03:15;4.28;;;2.05;;
71475;SDS011;59286;59.274;17.974;2023-05-10T08:05:41;6.80;;;2.10;;
71475;SDS011;59286;59.274;17.974;2023-05-10T08:08:06;7.97;;;2.10;;
71475;SDS011;59286;59.274;17.974;2023-05-10T08:10:31;4.28;;;2.10;;
71475;SDS011;59286;59.274;17.974;2023-05-10T08:12:57;5.88;;;2.30;;
71475;SDS011;59286;59.274;17.974;2023-05-10T08:15:23;6.10;;;2.20;;
71475;SDS011;59286;59.274;17.974;2023-05-10T08:17:49;4.63;;;2.30;;
71475;SDS011;59286;59.274;17.974;2023-05-10T08:20:16;10.50;;;1.95;;
71475;SDS011;59286;59.274;17.974;2023-05-10T08:22:44;6.35;;;1.95;;
71475;SDS011;59286;59.274;17.974;2023-05-10T08:25:10;4.15;;;2.03;;
71475;SDS011;59286;59.274;17.974;2023-05-10T08:27:35;7.40;;;1.88;;
71475;SDS011;59286;59.274;17.974;2023-05-10T08:30:00;6.05;;;2.13;;
71475;SDS011;59286;59.274;17.974;2023-05-10T08:32:26;7.82;;;2.30;;
71475;SDS011;59286;59.274;17.974;2023-05-10T08:34:51;8.35;;;2.33;;
71475;SDS011;59286;59.274;17.974;2023-05-10T08:37:16;9.20;;;2.10;;
71475;SDS011;59286;59.274;17.974;2023-05-10T08:39:42;4.63;;;2.20;;
71475;SDS011;59286;59.274;17.974;2023-05-10T08:42:07;5.53;;;1.88;;
71475;SDS011;59286;59.274;17.974;2023-05-10T08:44:34;5.05;;;2.00;;
71475;SDS011;59286;59.274;17.974;2023-05-10T08:47:04;6.47;;;2.30;;
71475;SDS011;59286;59.274;17.974;2023-05-10T08:49:31;6.50;;;2.40;;
71475;SDS011;59286;59.274;17.974;2023-05-10T08:51:57;4.63;;;1.90;;
71475;SDS011;59286;59.274;17.974;2023-05-10T08:54:28;4.22;;;2.10;;
71475;SDS011;59286;59.274;17.974;2023-05-10T08:56:55;7.10;;;2.25;;
71475;SDS011;59286;59.274;17.974;2023-05-10T08:59:21;7.53;;;2.28;;
71475;SDS011;59286;59.274;17.974;2023-05-10T09:01:47;4.50;;;2.10;;
71475;SDS011;59286;59.274;17.974;2023-05-10T09:04:14;4.82;;;1.90;;
71475;SDS011;59286;59.274;17.974;2023-05-10T09:06:39;9.45;;;2.08;;
71475;SDS011;59286;59.274;17.974;2023-05-10T09:09:08;10.63;;;1.80;;
71475;SDS011;59286;59.274;17.974;2023-05-10T09:11:34;8.15;;;1.98;;
71475;SDS011;59286;59.274;17.974;2023-05-10T09:14:00;5.55;;;2.22;;
71475;SDS011;59286;59.274;17.974;2023-05-10T09:16:26;5.95;;;2.05;;
71475;SDS011;59286;59.274;17.974;2023-05-10T09:18:51;3.70;;;2.63;;
71475;SDS011;59286;59.274;17.974;2023-05-10T09:21:17;4.75;;;1.75;;
71475;SDS011;59286;59.274;17.974;2023-05-10T09:23:45;7.72;;;2.40;;
71475;SDS011;59286;59.274;17.974;2023-05-10T09:26:11;9.20;;;2.40;;
71475;SDS011;59286;59.274;17.974;2023-05-10T09:28:54;6.53;;;2.38;;
71475;SDS011;59286;59.274;17.974;2023-05-10T09:31:21;10.07;;;2.20;;
71475;SDS011;59286;59.274;17.974;2023-05-10T09:33:47;11.13;;;2.53;;
71475;SDS011;59286;59.274;17.974;2023-05-10T09:36:14;5.30;;;2.10;;
71475;SDS011;59286;59.274;17.974;2023-05-10T09:38:46;12.10;;;2.47;;
71475;SDS011;59286;59.274;17.974;2023-05-10T09:41:17;4.32;;;2.00;;
71475;SDS011;59286;59.274;17.974;2023-05-10T09:43:50;4.88;;;2.13;;
71475;SDS011;59286;59.274;17.974;2023-05-10T09:46:20;6.13;;;2.30;;
71475;SDS011;59286;59.274;17.974;2023-05-10T09:48:46;10.18;;;2.47;;
71475;SDS011;59286;59.274;17.974;2023-05-10T09:51:19;6.53;;;2.42;;
71475;SDS011;59286;59.274;17.974;2023-05-10T09:53:45;11.25;;;2.58;;
71475;SDS011;59286;59.274;17.974;2023-05-10T09:56:10;3.60;;;1.90;;
71475;SDS011;59286;59.274;17.974;2023-05-10T09:58:36;7.32;;;2.15;;
71475;SDS011;59286;59.274;17.974;2023-05-10T10:01:05;17.05;;;2.63;;
71475;SDS011;59286;59.274;17.974;2023-05-10T10:03:40;8.70;;;2.28;;
71475;SDS011;59286;59.274;17.974;2023-05-10T10:06:07;5.70;;;2.10;;
71475;SDS011;59286;59.274;17.974;2023-05-10T10:08:33;13.43;;;2.20;;
71475;SDS011;59286;59.274;17.974;2023-05-10T10:10:59;13.85;;;2.53;;
71475;SDS011;59286;59.274;17.974;2023-05-10T10:13:25;5.07;;;1.80;;
71475;SDS011;59286;59.274;17.974;2023-05-10T10:15:51;6.90;;;2.10;;
71475;SDS011;59286;59.274;17.974;2023-05-10T10:18:17;9.02;;;2.25;;
71475;SDS011;59286;59.274;17.974;2023-05-10T10:20:43;8.10;;;2.40;;
71475;SDS011;59286;59.274;17.974;2023-05-10T10:23:10;5.68;;;2.13;;
71475;SDS011;59286;59.274;17.974;2023-05-10T10:25:35;5.20;;;2.25;;
71475;SDS011;59286;59.274;17.974;2023-05-10T10:28:09;8.27;;;2.20;;
71475;SDS011;59286;59.274;17.974;2023-05-10T10:30:46;8.07;;;2.13;;
71475;SDS011;59286;59.274;17.974;2023-05-10T10:35:59;7.25;;;2.15;;
71475;SDS011;59286;59.274;17.974;2023-05-10T10:38:35;3.03;;;1.80;;
71475;SDS011;59286;59.274;17.974;2023-05-10T10:41:06;7.80;;;2.53;;
71475;SDS011;59286;59.274;17.974;2023-05-10T10:43:34;6.47;;;2.15;;
71475;SDS011;59286;59.274;17.974;2023-05-10T10:46:16;5.43;;;1.90;;
71475;SDS011;59286;59.274;17.974;2023-05-10T10:51:39;9.40;;;2.15;;
71475;SDS011;59286;59.274;17.974;2023-05-10T10:54:11;8.80;;;3.03;;
71475;SDS011;59286;59.274;17.974;2023-05-10T10:56:37;3.67;;;2.00;;
71475;SDS011;59286;59.274;17.974;2023-05-10T10:59:02;9.25;;;2.55;;
71475;SDS011;59286;59.274;17.974;2023-05-10T11:01:32;5.97;;;1.88;;
71475;SDS011;59286;59.274;17.974;2023-05-10T11:06:31;7.13;;;2.35;;
71475;SDS011;59286;59.274;17.974;2023-05-10T11:08:59;6.35;;;2.03;;
71475;SDS011;59286;59.274;17.974;2023-05-10T11:11:30;5.65;;;2.17;;
71475;SDS011;59286;59.274;17.974;2023-05-10T11:13:56;6.03;;;2.20;;
71475;SDS011;59286;59.274;17.974;2023-05-10T11:16:28;6.38;;;2.17;;
71475;SDS011;59286;59.274;17.974;2023-05-10T11:19:08;9.23;;;2.40;;
71475;SDS011;59286;59.274;17.974;2023-05-10T11:21:44;6.88;;;2.13;;
71475;SDS011;59286;59.274;17.974;2023-05-10T11:24:13;8.13;;;2.20;;
71475;SDS011;59286;59.274;17.974;2023-05-10T11:26:39;4.95;;;2.25;;
71475;SDS011;59286;59.274;17.974;2023-05-10T11:29:05;7.13;;;2.28;;
71475;SDS011;59286;59.274;17.974;2023-05-10T11:31:31;5.80;;;2.13;;
71475;SDS011;59286;59.274;17.974;2023-05-10T11:33:57;4.07;;;2.45;;
71475;SDS011;59286;59.274;17.974;2023-05-10T11:36:32;6.82;;;2.40;;
71475;SDS011;59286;59.274;17.974;2023-05-10T11:38:59;5.60;;;2.00;;
71475;SDS011;59286;59.274;17.974;2023-05-10T11:41:26;7.25;;;2.22;;
71475;SDS011;59286;59.274;17.974;2023-05-10T11:43:54;4.68;;;2.60;;
71475;SDS011;59286;59.274;17.974;2023-05-10T11:46:20;5.95;;;2.30;;
71475;SDS011;59286;59.274;17.974;2023-05-10T11:48:50;7.00;;;2.20;;
71475;SDS011;59286;59.274;17.974;2023-05-10T11:51:20;7.50;;;2.30;;
71475;SDS011;59286;59.274;17.974;2023-05-10T11:53:47;4.95;;;2.50;;
71475;SDS011;59286;59.274;17.974;2023-05-10T11:56:13;7.43;;;2.45;;
71475;SDS011;59286;59.274;17.974;2023-05-10T11:58:39;5.28;;;2.08;;
71475;SDS011;59286;59.274;17.974;2023-05-10T12:01:05;7.28;;;2.45;;
71475;SDS011;59286;59.274;17.974;2023-05-10T12:03:31;5.20;;;2.00;;
71475;SDS011;59286;59.274;17.974;2023-05-10T12:05:58;8.23;;;2.13;;
71475;SDS011;59286;59.274;17.974;2023-05-10T12:08:28;5.70;;;2.00;;
71475;SDS011;59286;59.274;17.974;2023-05-10T12:11:05;6.65;;;2.22;;
71475;SDS011;59286;59.274;17.974;2023-05-10T12:13:32;5.90;;;2.42;;
71475;SDS011;59286;59.274;17.974;2023-05-10T12:16:11;5.90;;;2.05;;
71475;SDS011;59286;59.274;17.974;2023-05-10T12:18:38;8.18;;;2.00;;
71475;SDS011;59286;59.274;17.974;2023-05-10T12:21:05;8.43;;;2.15;;
71475;SDS011;59286;59.274;17.974;2023-05-10T12:23:30;2.95;;;1.60;;
71475;SDS011;59286;59.274;17.974;2023-05-10T12:26:01;4.82;;;2.08;;
71475;SDS011;59286;59.274;17.974;2023-05-10T12:28:29;8.45;;;2.13;;
71475;SDS011;59286;59.274;17.974;2023-05-10T12:30:57;6.43;;;2.10;;
71475;SDS011;59286;59.274;17.974;2023-05-10T12:33:23;5.97;;;2.15;;
71475;SDS011;59286;59.274;17.974;2023-05-10T12:35:53;7.82;;;1.70;;
71475;SDS011;59286;59.274;17.974;2023-05-10T12:38:29;17.02;;;2.28;;
71475;SDS011;59286;59.274;17.974;2023-05-10T12:41:03;9.50;;;2.05;;
71475;SDS011;59286;59.274;17.974;2023-05-10T12:43:30;12.57;;;2.50;;
71475;SDS011;59286;59.274;17.974;2023-05-10T12:45:55;12.15;;;2.17;;
71475;SDS011;59286;59.274;17.974;2023-05-10T12:48:21;6.10;;;1.88;;
71475;SDS011;59286;59.274;17.974;2023-05-10T12:50:47;8.85;;;1.85;;
71475;SDS011;59286;59.274;17.974;2023-05-10T12:53:16;8.95;;;1.67;;
71475;SDS011;59286;59.274;17.974;2023-05-10T12:55:44;4.25;;;1.80;;
71475;SDS011;59286;59.274;17.974;2023-05-10T12:58:10;10.40;;;1.80;;
71475;SDS011;59286;59.274;17.974;2023-05-10T13:00:35;5.88;;;1.70;;
71475;SDS011;59286;59.274;17.974;2023-05-10T13:03:03;6.07;;;2.13;;
71475;SDS011;59286;59.274;17.974;2023-05-10T13:05:31;6.35;;;1.55;;
71475;SDS011;59286;59.274;17.974;2023-05-10T13:07:57;13.75;;;2.00;;
71475;SDS011;59286;59.274;17.974;2023-05-10T13:10:22;4.00;;;1.80;;
71475;SDS011;59286;59.274;17.974;2023-05-10T13:12:48;2.95;;;1.55;;
71475;SDS011;59286;59.274;17.974;2023-05-10T13:15:14;4.80;;;1.80;;
71475;SDS011;59286;59.274;17.974;2023-05-10T13:17:39;4.95;;;1.70;;
71475;SDS011;59286;59.274;17.974;2023-05-10T13:20:05;4.82;;;1.90;;
71475;SDS011;59286;59.274;17.974;2023-05-10T13:22:34;4.82;;;1.73;;
71475;SDS011;59286;59.274;17.974;2023-05-10T13:25:00;5.35;;;1.92;;
71475;SDS011;59286;59.274;17.974;2023-05-10T13:27:27;8.70;;;1.85;;
71475;SDS011;59286;59.274;17.974;2023-05-10T13:29:52;3.83;;;1.80;;
71475;SDS011;59286;59.274;17.974;2023-05-10T13:32:17;6.55;;;2.00;;
71475;SDS011;59286;59.274;17.974;2023-05-10T13:34:43;6.70;;;1.70;;
71475;SDS011;59286;59.274;17.974;2023-05-10T13:37:08;3.97;;;1.95;;
71475;SDS011;59286;59.274;17.974;2023-05-10T13:39:34;7.50;;;2.38;;
71475;SDS011;59286;59.274;17.974;2023-05-10T13:41:59;7.25;;;1.90;;
71475;SDS011;59286;59.274;17.974;2023-05-10T13:44:25;5.10;;;2.00;;
71475;SDS011;59286;59.274;17.974;2023-05-10T13:46:50;1.80;;;1.35;;
71475;SDS011;59286;59.274;17.974;2023-05-10T13:49:16;6.88;;;1.75;;
71475;SDS011;59286;59.274;17.974;2023-05-10T13:51:43;6.28;;;1.60;;
71475;SDS011;59286;59.274;17.974;2023-05-10T13:54:09;5.07;;;1.60;;
71475;SDS011;59286;59.274;17.974;2023-05-10T13:56:34;5.80;;;1.80;;
71475;SDS011;59286;59.274;17.974;2023-05-10T13:59:00;5.25;;;1.85;;
71475;SDS011;59286;59.274;17.974;2023-05-10T14:01:25;6.05;;;1.65;;
71475;SDS011;59286;59.274;17.974;2023-05-10T14:03:50;6.30;;;1.33;;
71475;SDS011;59286;59.274;17.974;2023-05-10T14:06:16;8.18;;;1.75;;
71475;SDS011;59286;59.274;17.974;2023-05-10T14:08:42;5.13;;;1.85;;
71475;SDS011;59286;59.274;17.974;2023-05-10T14:11:07;2.53;;;1.58;;
71475;SDS011;59286;59.274;17.974;2023-05-10T14:13:33;7.40;;;1.70;;
71475;SDS011;59286;59.274;17.974;2023-05-10T14:15:58;7.95;;;1.80;;
71475;SDS011;59286;59.274;17.974;2023-05-10T14:18:25;3.25;;;1.48;;
71475;SDS011;59286;59.274;17.974;2023-05-10T14:20:51;7.47;;;1.48;;
71475;SDS011;59286;59.274;17.974;2023-05-10T14:23:17;2.67;;;1.40;;
71475;SDS011;59286;59.274;17.974;2023-05-10T14:25:42;6.85;;;1.70;;
71475;SDS011;59286;59.274;17.974;2023-05-10T14:28:08;4.45;;;1.48;;
71475;SDS011;59286;59.274;17.974;2023-05-10T14:30:34;2.22;;;1.35;;
71475;SDS011;59286;59.274;17.974;2023-05-10T14:33:00;4.45;;;1.52;;
71475;SDS011;59286;59.274;17.974;2023-05-10T14:35:27;3.47;;;1.40;;
71475;SDS011;59286;59.274;17.974;2023-05-10T14:37:52;5.35;;;1.35;;
71475;SDS011;59286;59.274;17.974;2023-05-10T14:40:18;5.40;;;1.70;;
71475;SDS011;59286;59.274;17.974;2023-05-10T14:42:44;4.32;;;1.40;;
71475;SDS011;59286;59.274;17.974;2023-05-10T14:45:09;5.43;;;1.50;;
71475;SDS011;59286;59.274;17.974;2023-05-10T14:47:35;5.65;;;2.03;;
71475;SDS011;59286;59.274;17.974;2023-05-10T14:50:01;2.40;;;1.60;;
71475;SDS011;59286;59.274;17.974;2023-05-10T14:52:26;3.63;;;1.60;;
71475;SDS011;59286;59.274;17.974;2023-05-10T14:54:52;8.65;;;1.63;;
71475;SDS011;59286;59.274;17.974;2023-05-10T14:57:18;7.22;;;1.60;;